createdAt,value
2019-04-11T00:01:40.903Z,81.90
2019-04-11T00:04:22.054Z,82.00
2019-04-11T00:07:07.869Z,82.80
2019-04-11T00:09:52.925Z,83.50
2019-04-11T00:12:38.834Z,84.00
2019-04-11T00:15:24.502Z,84.90
2019-04-11T00:18:10.296Z,85.10
2019-04-11T00:20:56.163Z,85.40
2019-04-11T00:23:42.690Z,85.80
2019-04-11T00:26:29.021Z,86.30
2019-04-11T00:29:14.400Z,86.70
2019-04-11T00:32:01.121Z,86.50
2019-04-11T00:34:47.014Z,87.70
2019-04-11T00:37:32.880Z,87.80
2019-04-11T00:40:19.712Z,87.60
2019-04-11T00:43:05.441Z,86.60
2019-04-11T00:45:50.472Z,86.70
2019-04-11T00:48:35.737Z,87.50
2019-04-11T00:51:21.250Z,87.10
2019-04-11T00:54:06.734Z,87.70
2019-04-11T00:56:52.630Z,87.90
2019-04-11T00:59:38.495Z,89.00
2019-04-11T01:02:23.587Z,89.50
2019-04-11T01:05:09.617Z,88.70
2019-04-11T01:07:55.405Z,89.00
2019-04-11T01:10:43.500Z,89.10
2019-04-11T01:13:40.562Z,89.30
2019-04-11T01:16:23.468Z,89.20
2019-04-11T01:19:08.874Z,89.30
2019-04-11T01:21:54.965Z,90.10
2019-04-11T01:24:40.377Z,89.90
2019-04-11T01:27:25.770Z,90.10
2019-04-11T01:30:13.897Z,90.10
2019-04-11T01:32:59.024Z,90.10
2019-04-11T01:35:44.374Z,90.20
2019-04-11T01:38:30.503Z,91.00
2019-04-11T01:41:15.503Z,91.10
2019-04-11T01:44:03.807Z,90.80
2019-04-11T01:46:48.562Z,90.60
2019-04-11T01:49:34.435Z,90.50
2019-04-11T01:52:20.340Z,90.30
2019-04-11T01:55:05.665Z,90.30
2019-04-11T01:57:51.961Z,90.40
2019-04-11T02:01:00.775Z,91.10
2019-04-11T02:03:55.272Z,91.00
2019-04-11T02:06:40.623Z,90.80
2019-04-11T02:09:26.207Z,90.60
2019-04-11T02:12:12.097Z,91.00
2019-04-11T02:14:57.774Z,90.40
2019-04-11T02:17:43.223Z,90.40
2019-04-11T02:20:29.146Z,90.70
2019-04-11T02:23:39.292Z,90.40
2019-04-11T02:26:27.778Z,90.50
2019-04-11T02:29:13.074Z,90.50
2019-04-11T02:32:01.253Z,90.50
2019-04-11T02:34:46.620Z,90.60
2019-04-11T02:37:34.344Z,90.70
2019-04-11T02:40:20.162Z,91.00
2019-04-11T02:43:07.643Z,91.30
2019-04-11T02:46:09.263Z,91.00
2019-04-11T02:48:40.653Z,91.30
2019-04-11T02:51:27.028Z,90.70
2019-04-11T02:54:13.644Z,90.50
2019-04-11T02:57:00.399Z,90.20
2019-04-11T02:59:48.829Z,90.10
2019-04-11T03:02:34.719Z,90.40
2019-04-11T03:05:21.468Z,90.40
2019-04-11T03:08:10.545Z,90.30
2019-04-11T03:10:55.258Z,90.40
2019-04-11T03:13:42.001Z,90.60
2019-04-11T03:16:41.019Z,90.90
2019-04-11T03:19:29.762Z,91.40
2019-04-11T03:22:03.297Z,91.20
2019-04-11T03:24:50.845Z,91.50
2019-04-11T03:27:37.140Z,91.80
2019-04-11T03:30:34.029Z,92.00
2019-04-11T03:34:06.266Z,92.30
2019-04-11T03:36:50.879Z,92.60
2019-04-11T03:39:05.441Z,93.20
2019-04-11T03:41:50.800Z,93.60
2019-04-11T03:44:26.681Z,93.80
2019-04-11T03:47:21.942Z,94.00
2019-04-11T03:50:00.240Z,94.40
2019-04-11T03:52:40.952Z,94.70
2019-04-11T03:55:28.401Z,94.90
2019-04-11T03:58:15.362Z,95.40
2019-04-11T04:01:03.407Z,96.00
2019-04-11T04:03:48.996Z,96.50
2019-04-11T04:06:37.229Z,96.90
2019-04-11T04:09:23.979Z,97.30
2019-04-11T04:12:11.311Z,97.80
2019-04-11T04:15:31.375Z,98.10
2019-04-11T04:18:24.541Z,98.50
2019-04-11T04:21:17.440Z,99.10
2019-04-11T04:24:04.075Z,99.50
2019-04-11T04:26:50.289Z,99.80
2019-04-11T04:29:37.736Z,99.90
2019-04-11T04:32:24.590Z,99.90
2019-04-11T04:35:14.468Z,99.90
2019-04-11T04:37:59.044Z,99.90
2019-04-11T04:41:03.812Z,99.90
2019-04-11T04:43:34.061Z,99.90
2019-04-11T04:46:34.682Z,99.90
2019-04-11T04:49:07.047Z,99.90
2019-04-11T04:51:53.387Z,99.90
2019-04-11T04:54:40.843Z,99.90
2019-04-11T04:57:26.847Z,99.90
2019-04-11T05:00:14.222Z,99.90
2019-04-11T05:03:02.289Z,99.90
2019-04-11T05:05:48.468Z,99.90
2019-04-11T05:08:34.756Z,99.90
2019-04-11T05:11:20.562Z,99.90
2019-04-11T05:14:07.072Z,99.10
2019-04-11T05:16:52.688Z,98.60
2019-04-11T05:19:38.365Z,97.70
2019-04-11T05:22:24.553Z,96.90
2019-04-11T05:25:10.640Z,96.50
2019-04-11T05:27:58.092Z,95.80
2019-04-11T05:30:43.510Z,94.40
2019-04-11T05:33:29.420Z,93.40
2019-04-11T05:36:14.546Z,92.30
2019-04-11T05:39:00.385Z,92.10
2019-04-11T05:41:47.106Z,88.90
2019-04-11T05:44:32.700Z,88.30
2019-04-11T05:47:18.894Z,86.40
2019-04-11T05:50:30.584Z,83.60
2019-04-11T05:53:18.568Z,83.40
2019-04-11T05:56:03.703Z,82.70
2019-04-11T05:58:49.443Z,80.70
2019-04-11T06:01:39.484Z,80.10
2019-04-11T06:04:32.309Z,78.40
2019-04-11T06:07:25.071Z,75.30
2019-04-11T06:10:17.794Z,75.90
2019-04-11T06:13:12.218Z,75.40
2019-04-11T06:16:00.652Z,72.40
2019-04-11T06:19:04.045Z,71.00
2019-04-11T06:21:53.193Z,71.80
2019-04-11T06:25:16.710Z,70.60
2019-04-11T06:28:07.050Z,71.70
2019-04-11T06:31:10.373Z,71.90
2019-04-11T06:33:58.838Z,72.10
2019-04-11T06:36:52.965Z,72.90
2019-04-11T06:39:50.263Z,70.70
2019-04-11T06:42:40.763Z,70.30
2019-04-11T06:45:44.421Z,71.90
2019-04-11T06:48:35.845Z,71.80
2019-04-11T06:51:26.678Z,68.60
2019-04-11T06:54:15.109Z,67.90
2019-04-11T06:57:01.370Z,65.00
2019-04-11T06:59:46.742Z,62.90
2019-04-11T07:02:32.308Z,63.60
2019-04-11T07:05:18.294Z,64.20
2019-04-11T07:08:05.417Z,58.60
2019-04-11T07:10:55.647Z,57.10
2019-04-11T07:13:50.002Z,57.90
2019-04-11T07:16:36.226Z,59.70
2019-04-11T07:19:41.350Z,57.70
2019-04-11T07:22:45.294Z,57.90
2019-04-11T07:25:49.889Z,55.80
2019-04-11T07:29:04.499Z,53.70
2019-04-11T07:32:13.571Z,54.60
2019-04-11T07:35:17.359Z,53.60
2019-04-11T07:38:03.228Z,53.40
2019-04-11T07:41:04.215Z,52.80
2019-04-11T07:43:50.010Z,53.00
2019-04-11T07:46:47.323Z,51.50
2019-04-11T07:49:35.072Z,50.90
2019-04-11T07:52:20.866Z,51.30
2019-04-11T07:55:06.754Z,50.90
2019-04-11T07:58:11.677Z,51.00
2019-04-11T08:01:17.038Z,50.20
2019-04-11T08:04:19.453Z,50.70
2019-04-11T08:07:15.678Z,49.20
2019-04-11T08:10:05.885Z,48.90
2019-04-11T08:12:51.952Z,48.20
2019-04-11T08:15:57.905Z,48.70
2019-04-11T08:18:52.919Z,46.20
2019-04-11T08:21:56.766Z,46.90
2019-04-11T08:25:11.218Z,46.80
2019-04-11T08:28:02.372Z,45.40
2019-04-11T08:31:08.082Z,43.40
2019-04-11T08:33:57.021Z,47.20
2019-04-11T08:37:00.445Z,43.60
2019-04-11T08:39:49.095Z,44.80
2019-04-11T08:43:02.633Z,43.00
2019-04-11T08:45:51.709Z,45.50
2019-04-11T08:48:39.358Z,47.40
2019-04-11T08:51:25.419Z,46.60
2019-04-11T08:54:29.228Z,47.50
2019-04-11T08:57:27.574Z,49.40
2019-04-11T09:00:35.238Z,47.80
2019-04-11T09:03:26.002Z,49.50
2019-04-11T09:06:14.581Z,48.20
2019-04-11T09:09:18.810Z,51.30
2019-04-11T09:12:06.935Z,52.90
2019-04-11T09:15:19.126Z,51.40
2019-04-11T09:18:10.374Z,53.60
2019-04-11T09:21:24.195Z,53.30
2019-04-11T09:24:24.201Z,48.10
2019-04-11T09:27:28.838Z,47.30
2019-04-11T09:30:21.472Z,45.20
2019-04-11T09:33:25.904Z,49.00
2019-04-11T09:36:30.592Z,43.70
2019-04-11T09:39:23.420Z,45.50
2019-04-11T09:42:22.995Z,42.00
2019-04-11T09:45:31.014Z,42.60
2019-04-11T09:48:42.295Z,46.60
2019-04-11T09:51:34.153Z,49.00
2019-04-11T09:54:37.619Z,50.20
2019-04-11T09:57:29.932Z,49.20
2019-04-11T10:00:34.761Z,51.20
2019-04-11T10:03:25.895Z,50.10
2019-04-11T10:06:36.982Z,49.30
2019-04-11T10:09:26.067Z,48.80
2019-04-11T10:12:29.826Z,49.70
2019-04-11T10:15:15.813Z,50.40
2019-04-11T10:18:25.215Z,51.20
2019-04-11T10:21:06.891Z,50.90
2019-04-11T10:24:02.994Z,49.80
2019-04-11T10:26:53.359Z,50.70
2019-04-11T10:29:56.799Z,51.00
2019-04-11T10:32:47.645Z,51.10
2019-04-11T10:35:50.981Z,51.70
2019-04-11T10:38:36.658Z,52.60
2019-04-11T10:41:34.209Z,53.70
2019-04-11T10:44:29.743Z,53.60
2019-04-11T10:47:20.765Z,53.90
2019-04-11T10:50:19.918Z,51.30
2019-04-11T10:53:05.100Z,51.30
2019-04-11T10:56:10.681Z,53.90
2019-04-11T10:58:57.528Z,53.40
2019-04-11T11:02:08.676Z,52.80
2019-04-11T11:04:55.257Z,52.10
2019-04-11T11:07:42.511Z,52.80
2019-04-11T11:10:31.260Z,54.10
2019-04-11T11:13:29.968Z,53.30
2019-04-11T11:16:15.923Z,52.70
2019-04-11T11:19:41.902Z,49.20
2019-04-11T11:22:23.635Z,48.90
2019-04-11T11:25:25.110Z,49.50
2019-04-11T11:28:11.645Z,50.30
2019-04-11T11:31:07.366Z,51.70
2019-04-11T11:33:54.385Z,51.50
2019-04-11T11:36:58.624Z,51.70
2019-04-11T11:40:12.025Z,50.50
2019-04-11T11:43:08.979Z,52.00
2019-04-11T11:46:14.154Z,52.30
2019-04-11T11:49:03.019Z,50.80
2019-04-11T11:52:08.919Z,48.80
2019-04-11T11:54:55.738Z,50.70
2019-04-11T11:58:03.471Z,50.70
2019-04-11T12:00:50.650Z,52.00
2019-04-11T12:04:01.298Z,50.10
2019-04-11T12:06:48.204Z,52.10
2019-04-11T12:09:53.073Z,52.30
2019-04-11T12:12:46.408Z,52.30
2019-04-11T12:15:51.140Z,49.90
2019-04-11T12:18:49.803Z,49.60
2019-04-11T12:21:32.853Z,50.50
2019-04-11T12:24:25.247Z,51.60
2019-04-11T12:27:31.287Z,49.80
2019-04-11T12:30:37.636Z,51.00
2019-04-11T12:33:45.776Z,50.80
2019-04-11T12:36:35.038Z,50.50
2019-04-11T12:39:45.894Z,50.00
2019-04-11T12:42:34.349Z,50.70
2019-04-11T12:45:54.851Z,50.90
2019-04-11T12:48:43.805Z,50.80
2019-04-11T12:51:47.436Z,50.70
2019-04-11T12:54:32.758Z,51.60
2019-04-11T12:57:36.546Z,52.70
2019-04-11T13:00:38.805Z,52.00
2019-04-11T13:03:42.701Z,51.00
2019-04-11T13:06:37.977Z,51.10
2019-04-11T13:09:39.639Z,51.80
2019-04-11T13:12:32.493Z,52.10
2019-04-11T13:15:23.731Z,52.80
2019-04-11T13:18:28.802Z,51.80
2019-04-11T13:21:20.658Z,53.10
2019-04-11T13:24:25.353Z,53.80
2019-04-11T13:27:15.565Z,53.80
2019-04-11T13:30:19.617Z,54.30
2019-04-11T13:33:13.425Z,53.50
2019-04-11T13:36:07.491Z,54.20
2019-04-11T13:38:52.917Z,54.50
2019-04-11T13:42:00.906Z,55.50
2019-04-11T13:44:45.972Z,56.50
2019-04-11T13:47:50.714Z,55.60
2019-04-11T13:50:36.406Z,56.90
2019-04-11T13:53:53.354Z,56.20
2019-04-11T13:56:54.290Z,55.40
2019-04-11T14:00:02.263Z,56.70
2019-04-11T14:03:06.998Z,57.10
2019-04-11T14:05:52.350Z,56.90
2019-04-11T14:08:46.266Z,56.90
2019-04-11T14:11:31.580Z,56.90
2019-04-11T14:14:44.106Z,57.00
2019-04-11T14:17:37.122Z,57.00
2019-04-11T14:20:42.592Z,56.60
2019-04-11T14:23:36.611Z,57.20
2019-04-11T14:26:34.417Z,57.00
2019-04-11T14:29:33.882Z,58.10
2019-04-11T14:32:27.481Z,57.10
2019-04-11T14:35:30.511Z,57.90
2019-04-11T14:38:17.612Z,58.50
2019-04-11T14:41:11.812Z,58.40
2019-04-11T14:44:00.256Z,58.20
2019-04-11T14:47:11.090Z,57.60
2019-04-11T14:50:00.337Z,57.40
2019-04-11T14:52:54.205Z,57.70
2019-04-11T14:55:41.521Z,58.00
2019-04-11T14:58:46.595Z,57.10
2019-04-11T15:01:31.615Z,57.10
2019-04-11T15:04:35.905Z,58.10
2019-04-11T15:07:21.118Z,57.50
2019-04-11T15:10:24.861Z,57.20
2019-04-11T15:13:12.177Z,58.80
2019-04-11T15:16:15.969Z,59.20
2019-04-11T15:19:02.381Z,59.60
2019-04-11T15:22:03.987Z,59.00
2019-04-11T15:24:51.065Z,60.30
2019-04-11T15:28:04.822Z,60.00
2019-04-11T15:30:52.258Z,59.80
2019-04-11T15:34:02.897Z,59.80
2019-04-11T15:36:57.924Z,59.90
2019-04-11T15:40:04.041Z,60.10
2019-04-11T15:43:21.305Z,60.30
2019-04-11T15:46:10.285Z,60.10
2019-04-11T15:49:21.280Z,60.20
2019-04-11T15:52:06.809Z,60.60
2019-04-11T15:55:09.906Z,61.30
2019-04-11T15:57:56.129Z,61.20
2019-04-11T16:00:59.202Z,61.20
2019-04-11T16:03:44.432Z,60.70
2019-04-11T16:06:44.947Z,60.60
2019-04-11T16:09:29.850Z,61.50
2019-04-11T16:12:26.122Z,61.60
2019-04-11T16:15:13.286Z,60.70
2019-04-11T16:18:22.242Z,61.40
2019-04-11T16:21:18.294Z,61.10
2019-04-11T16:24:07.117Z,61.30
2019-04-11T16:27:03.326Z,62.70
2019-04-11T16:29:53.925Z,63.20
2019-04-11T16:32:42.163Z,61.90
2019-04-11T16:35:36.678Z,62.20
2019-04-11T16:38:22.977Z,61.70
2019-04-11T16:41:27.325Z,61.90
2019-04-11T16:44:18.383Z,62.60
2019-04-11T16:47:23.704Z,60.60
2019-04-11T16:50:09.033Z,60.50
2019-04-11T16:52:54.398Z,61.10
2019-04-11T16:55:43.150Z,62.30
2019-04-11T16:58:26.881Z,62.10
2019-04-11T17:01:11.981Z,61.80
2019-04-11T17:03:57.065Z,61.70
2019-04-11T17:06:50.250Z,62.40
2019-04-11T17:09:39.318Z,59.90
2019-04-11T17:12:26.541Z,61.10
2019-04-11T17:15:11.607Z,60.70
2019-04-11T17:17:56.646Z,61.00
2019-04-11T17:20:42.034Z,61.40
2019-04-11T17:23:27.706Z,60.70
2019-04-11T17:26:13.299Z,61.30
2019-04-11T17:28:58.463Z,62.00
2019-04-11T17:31:43.540Z,61.60
2019-04-11T17:34:32.151Z,61.20
2019-04-11T17:37:15.725Z,61.90
2019-04-11T17:40:00.708Z,62.60
2019-04-11T17:42:46.330Z,63.00
2019-04-11T17:45:31.321Z,61.70
2019-04-11T17:48:16.330Z,62.20
2019-04-11T17:51:04.869Z,62.20
2019-04-11T17:53:48.432Z,63.40
2019-04-11T17:56:33.493Z,63.10
2019-04-11T17:59:18.649Z,62.90
2019-04-11T18:02:04.736Z,63.90
2019-04-11T18:04:49.980Z,63.00
2019-04-11T18:07:35.361Z,63.80
2019-04-11T18:10:20.964Z,63.20
2019-04-11T18:13:06.198Z,63.10
2019-04-11T18:15:51.214Z,62.50
2019-04-11T18:18:36.497Z,62.50
2019-04-11T18:21:21.936Z,63.60
2019-04-11T18:24:06.986Z,64.20
2019-04-11T18:26:52.538Z,65.00
2019-04-11T18:29:38.355Z,65.00
2019-04-11T18:32:23.930Z,65.20
2019-04-11T18:35:09.302Z,66.30
2019-04-11T18:37:54.322Z,65.40
2019-04-11T18:40:40.237Z,66.10
2019-04-11T18:43:26.007Z,66.80
2019-04-11T18:46:10.830Z,66.90
2019-04-11T18:48:56.362Z,66.30
2019-04-11T18:51:41.938Z,65.50
2019-04-11T18:54:27.721Z,65.90
2019-04-11T18:57:13.086Z,68.10
2019-04-11T18:59:58.562Z,67.70
2019-04-11T19:02:44.448Z,67.70
2019-04-11T19:05:30.225Z,67.50
2019-04-11T19:08:15.422Z,66.90
2019-04-11T19:11:00.737Z,67.60
2019-04-11T19:13:47.097Z,66.10
2019-04-11T19:16:32.834Z,66.20
2019-04-11T19:19:19.235Z,66.00
2019-04-11T19:22:05.010Z,66.70
2019-04-11T19:24:50.495Z,66.80
2019-04-11T19:27:35.958Z,66.80
2019-04-11T19:30:21.222Z,66.20
2019-04-11T19:33:06.598Z,66.90
2019-04-11T19:35:52.274Z,67.10
2019-04-11T19:38:37.333Z,66.40
2019-04-11T19:41:22.407Z,66.70
2019-04-11T19:44:07.476Z,66.50
2019-04-11T19:46:52.361Z,67.10
2019-04-11T19:49:37.169Z,67.30
2019-04-11T19:52:22.661Z,66.60
2019-04-11T19:55:15.666Z,67.00
2019-04-11T19:58:01.485Z,67.60
2019-04-11T20:00:47.483Z,67.40
2019-04-11T20:03:33.360Z,68.20
2019-04-11T20:06:18.698Z,69.00
2019-04-11T20:09:04.953Z,68.90
2019-04-11T20:11:51.106Z,68.70
2019-04-11T20:14:35.834Z,69.20
2019-04-11T20:17:20.730Z,69.20
2019-04-11T20:20:07.099Z,68.50
2019-04-11T20:22:58.852Z,68.50
2019-04-11T20:25:40.284Z,68.10
2019-04-11T20:28:26.796Z,69.00
2019-04-11T20:31:12.286Z,69.00
2019-04-11T20:33:57.962Z,68.50
2019-04-11T20:36:43.254Z,69.10
2019-04-11T20:39:28.184Z,69.10
2019-04-11T20:42:13.257Z,69.10
2019-04-11T20:44:59.197Z,69.50
2019-04-11T20:47:44.822Z,69.50
2019-04-11T20:50:29.880Z,69.30
2019-04-11T20:53:15.183Z,68.50
2019-04-11T20:56:00.011Z,68.90
2019-04-11T20:58:45.141Z,69.20
2019-04-11T21:01:30.014Z,69.50
2019-04-11T21:04:15.170Z,69.10
2019-04-11T21:07:02.111Z,70.00
2019-04-11T21:09:47.553Z,69.50
2019-04-11T21:12:36.948Z,69.20
2019-04-11T21:15:20.319Z,69.70
2019-04-11T21:18:05.745Z,69.30
2019-04-11T21:20:55.028Z,70.20
2019-04-11T21:23:37.986Z,68.30
2019-04-11T21:26:23.801Z,66.10
2019-04-11T21:29:09.241Z,67.60
2019-04-11T21:31:54.637Z,66.80
2019-04-11T21:34:39.990Z,66.90
2019-04-11T21:37:25.396Z,67.00
2019-04-11T21:40:10.863Z,67.50
2019-04-11T21:42:56.441Z,68.40
2019-04-11T21:45:41.705Z,67.60
2019-04-11T21:48:27.390Z,67.60
2019-04-11T21:51:12.426Z,68.20
2019-04-11T21:53:58.229Z,68.30
2019-04-11T21:56:44.010Z,68.20
2019-04-11T21:59:29.177Z,68.80
2019-04-11T22:02:14.755Z,69.00
2019-04-11T22:04:59.881Z,68.90
2019-04-11T22:07:45.086Z,69.70
2019-04-11T22:10:30.558Z,70.20
2019-04-11T22:13:15.576Z,69.20
2019-04-11T22:16:01.915Z,69.80
2019-04-11T22:18:47.453Z,70.00
2019-04-11T22:21:33.070Z,70.20
2019-04-11T22:24:18.234Z,70.50
2019-04-11T22:27:03.506Z,70.30
2019-04-11T22:29:49.219Z,69.40
2019-04-11T22:32:34.655Z,70.40
2019-04-11T22:35:19.921Z,70.50
2019-04-11T22:38:05.090Z,71.00
2019-04-11T22:40:50.505Z,70.90
2019-04-11T22:43:38.092Z,71.30
2019-04-11T22:46:23.717Z,71.50
2019-04-11T22:49:09.469Z,71.60
2019-04-11T22:51:55.193Z,72.20
2019-04-11T22:54:41.788Z,73.10
2019-04-11T22:57:27.300Z,73.40
2019-04-11T23:00:14.779Z,74.10
2019-04-11T23:03:06.738Z,74.80
2019-04-11T23:05:52.312Z,74.60
2019-04-11T23:08:37.886Z,75.40
2019-04-11T23:11:23.262Z,74.90
2019-04-11T23:14:08.322Z,75.30
2019-04-11T23:16:53.998Z,75.90
2019-04-11T23:19:41.811Z,76.00
2019-04-11T23:22:26.685Z,76.40
2019-04-11T23:25:12.261Z,76.00
2019-04-11T23:27:57.519Z,76.00
2019-04-11T23:30:42.507Z,76.70
2019-04-11T23:33:27.660Z,76.80
2019-04-11T23:36:13.846Z,77.30
2019-04-11T23:38:58.974Z,77.20
2019-04-11T23:41:44.185Z,77.20
2019-04-11T23:44:29.133Z,76.80
2019-04-11T23:47:14.309Z,77.70
2019-04-11T23:49:59.578Z,77.30
2019-04-11T23:52:44.934Z,78.20
2019-04-11T23:55:30.718Z,77.50
2019-04-11T23:58:15.929Z,78.20
